createdAt,value
2018-07-30T00:03:20.808Z,47.26
2018-07-30T00:08:24.526Z,47.07
2018-07-30T00:13:28.365Z,47.94
2018-07-30T00:18:32.094Z,47.68
2018-07-30T00:23:35.871Z,47.41
2018-07-30T00:28:39.603Z,47.33
2018-07-30T00:33:43.866Z,47.48
2018-07-30T00:38:47.899Z,48.05
2018-07-30T00:43:51.869Z,48.00
2018-07-30T00:48:55.658Z,47.24
2018-07-30T00:53:59.552Z,47.43
2018-07-30T00:59:03.340Z,47.56
2018-07-30T01:04:07.027Z,47.25
2018-07-30T01:09:11.643Z,47.57
2018-07-30T01:14:16.079Z,47.57
2018-07-30T01:19:19.883Z,47.15
2018-07-30T01:24:23.660Z,47.31
2018-07-30T01:29:27.336Z,47.57
2018-07-30T01:34:31.117Z,47.47
2018-07-30T01:39:35.877Z,47.76
2018-07-30T01:44:39.582Z,47.61
2018-07-30T01:49:43.234Z,47.94
2018-07-30T01:54:46.995Z,48.11
2018-07-30T01:59:50.998Z,47.75
2018-07-30T02:04:54.686Z,48.18
2018-07-30T02:09:58.502Z,47.47
2018-07-30T02:15:05.524Z,47.77
2018-07-30T02:20:09.190Z,48.03
2018-07-30T02:25:12.902Z,47.66
2018-07-30T02:30:16.606Z,47.78
2018-07-30T02:35:20.392Z,47.91
2018-07-30T02:40:24.106Z,47.97
2018-07-30T02:45:27.857Z,48.16
2018-07-30T02:50:31.532Z,48.33
2018-07-30T02:55:35.183Z,47.98
2018-07-30T03:00:38.931Z,48.15
2018-07-30T03:05:43.292Z,48.08
2018-07-30T03:10:47.049Z,47.90
2018-07-30T03:15:50.763Z,48.05
2018-07-30T03:20:54.534Z,47.17
2018-07-30T03:25:59.091Z,47.41
2018-07-30T03:31:02.832Z,48.24
2018-07-30T03:36:06.745Z,47.43
2018-07-30T03:41:11.649Z,47.82
2018-07-30T03:46:16.572Z,46.44
2018-07-30T03:51:20.323Z,45.69
2018-07-30T03:56:24.146Z,45.93
2018-07-30T04:01:27.903Z,46.41
2018-07-30T04:06:32.192Z,47.65
2018-07-30T04:11:35.959Z,49.56
2018-07-30T04:16:45.050Z,50.60
2018-07-30T04:21:48.714Z,51.28
2018-07-30T04:26:52.375Z,52.07
2018-07-30T04:31:56.042Z,52.88
2018-07-30T04:36:59.741Z,53.21
2018-07-30T04:42:03.486Z,53.65
2018-07-30T04:47:07.208Z,52.16
2018-07-30T04:52:10.882Z,51.81
2018-07-30T04:57:14.630Z,50.97
2018-07-30T05:02:18.903Z,50.21
2018-07-30T05:07:22.582Z,49.97
2018-07-30T05:12:26.455Z,50.06
2018-07-30T05:17:31.223Z,49.50
2018-07-30T05:22:35.042Z,49.90
2018-07-30T05:27:38.757Z,49.63
2018-07-30T05:32:42.863Z,49.69
2018-07-30T05:37:46.534Z,48.88
2018-07-30T05:42:50.403Z,48.98
2018-07-30T05:47:53.946Z,49.62
2018-07-30T05:52:57.663Z,49.65
2018-07-30T05:58:02.287Z,49.85
2018-07-30T06:03:06.061Z,49.92
2018-07-30T06:08:09.719Z,49.71
2018-07-30T06:13:13.457Z,48.69
2018-07-30T06:18:17.143Z,48.96
2018-07-30T06:23:20.793Z,49.23
2018-07-30T06:28:24.503Z,49.03
2018-07-30T06:33:28.311Z,48.76
2018-07-30T06:38:32.208Z,48.56
2018-07-30T06:43:35.838Z,48.42
2018-07-30T06:48:39.522Z,48.61
2018-07-30T06:53:43.275Z,48.58
2018-07-30T06:58:46.998Z,48.34
2018-07-30T07:03:50.686Z,47.32
2018-07-30T07:08:54.396Z,46.95
2018-07-30T07:13:58.196Z,47.75
2018-07-30T07:19:02.260Z,47.13
2018-07-30T07:24:06.147Z,47.44
2018-07-30T07:29:09.801Z,47.37
2018-07-30T07:34:13.562Z,47.18
2018-07-30T07:39:17.478Z,46.85
2018-07-30T07:44:21.298Z,47.12
2018-07-30T07:49:24.942Z,46.97
2018-07-30T07:54:29.453Z,46.74
2018-07-30T07:59:33.188Z,46.74
2018-07-30T08:04:36.962Z,46.74
2018-07-30T08:09:41.531Z,46.69
2018-07-30T08:14:45.259Z,46.55
2018-07-30T08:19:48.955Z,47.29
2018-07-30T08:24:52.638Z,47.67
2018-07-30T08:29:56.416Z,47.91
2018-07-30T08:35:00.185Z,48.33
2018-07-30T08:40:06.963Z,47.78
2018-07-30T08:45:10.686Z,48.24
2018-07-30T08:50:14.369Z,48.14
2018-07-30T08:55:18.144Z,47.87
2018-07-30T09:00:21.957Z,48.20
2018-07-30T09:05:25.789Z,48.02
2018-07-30T09:10:29.434Z,47.84
2018-07-30T09:15:33.130Z,48.43
2018-07-30T09:20:37.560Z,48.38
2018-07-30T09:25:41.225Z,49.03
2018-07-30T09:30:45.598Z,49.28
2018-07-30T09:35:50.344Z,49.93
2018-07-30T09:40:54.838Z,50.44
2018-07-30T09:45:58.595Z,50.52
2018-07-30T09:51:02.352Z,50.89
2018-07-30T09:56:07.400Z,50.51
2018-07-30T10:01:16.164Z,50.84
2018-07-30T10:06:20.794Z,51.30
2018-07-30T10:11:24.768Z,51.14
2018-07-30T10:16:28.650Z,51.21
2018-07-30T10:21:32.506Z,51.00
2018-07-30T10:26:36.308Z,51.03
2018-07-30T10:31:40.137Z,51.36
2018-07-30T10:36:43.851Z,51.74
2018-07-30T10:41:48.457Z,51.73
2018-07-30T10:46:53.122Z,51.33
2018-07-30T10:51:57.086Z,50.69
2018-07-30T10:57:02.535Z,49.58
2018-07-30T11:02:08.482Z,48.42
2018-07-30T11:07:13.055Z,47.15
2018-07-30T11:12:17.094Z,47.06
2018-07-30T11:17:21.739Z,46.28
2018-07-30T11:22:26.479Z,46.19
2018-07-30T11:27:31.176Z,45.82
2018-07-30T11:32:35.900Z,46.14
2018-07-30T11:37:40.384Z,45.81
2018-07-30T11:47:58.950Z,45.09
2018-07-30T11:53:04.061Z,45.16
2018-07-30T11:58:10.077Z,45.10
2018-07-30T12:03:14.472Z,45.50
2018-07-30T12:08:25.824Z,45.42
2018-07-30T12:13:29.821Z,44.94
2018-07-30T12:18:33.836Z,44.76
2018-07-30T12:23:37.486Z,44.81
2018-07-30T12:28:41.227Z,44.87
2018-07-30T12:33:45.064Z,44.27
2018-07-30T12:38:48.996Z,44.48
2018-07-30T12:43:52.690Z,44.35
2018-07-30T12:48:56.433Z,44.80
2018-07-30T12:54:00.124Z,44.64
2018-07-30T12:59:03.889Z,44.02
2018-07-30T13:04:08.120Z,44.36
2018-07-30T13:09:11.992Z,45.25
2018-07-30T13:14:15.669Z,45.40
2018-07-30T13:19:19.408Z,46.46
2018-07-30T13:24:23.123Z,46.69
2018-07-30T13:29:26.976Z,46.92
2018-07-30T13:34:30.750Z,48.22
2018-07-30T13:39:34.463Z,48.35
2018-07-30T13:44:38.212Z,48.12
2018-07-30T13:49:41.999Z,48.69
2018-07-30T13:54:45.910Z,48.15
2018-07-30T13:59:49.607Z,48.35
2018-07-30T14:04:54.368Z,48.51
2018-07-30T14:09:58.097Z,48.63
2018-07-30T14:15:15.371Z,48.81
2018-07-30T14:20:19.358Z,48.87
2018-07-30T14:25:23.055Z,49.23
2018-07-30T14:30:27.794Z,49.19
2018-07-30T14:35:31.500Z,49.28
2018-07-30T14:40:35.974Z,48.64
2018-07-30T14:45:39.857Z,49.19
2018-07-30T14:50:43.619Z,48.50
2018-07-30T14:55:47.393Z,48.80
2018-07-30T15:00:51.357Z,48.79
2018-07-30T15:05:55.198Z,48.22
2018-07-30T15:10:58.823Z,48.47
2018-07-30T15:16:02.575Z,48.65
2018-07-30T15:21:07.480Z,48.34
2018-07-30T15:26:11.714Z,48.61
2018-07-30T15:31:16.642Z,48.35
2018-07-30T15:36:20.921Z,48.43
2018-07-30T15:41:24.711Z,48.51
2018-07-30T15:46:28.556Z,48.25
2018-07-30T15:51:32.389Z,47.69
2018-07-30T15:56:36.259Z,48.33
2018-07-30T16:01:40.606Z,47.57
2018-07-30T16:06:44.479Z,48.04
2018-07-30T16:11:48.389Z,47.57
2018-07-30T16:16:52.235Z,48.17
2018-07-30T16:21:55.934Z,49.05
2018-07-30T16:26:59.953Z,49.34
2018-07-30T16:32:04.795Z,50.30
2018-07-30T16:37:08.860Z,49.99
2018-07-30T16:47:26.208Z,49.98
2018-07-30T16:52:30.121Z,49.51
2018-07-30T16:57:34.141Z,49.24
2018-07-30T17:02:38.202Z,48.96
2018-07-30T17:07:43.159Z,49.46
2018-07-30T17:12:47.348Z,48.88
2018-07-30T17:17:51.205Z,48.87
2018-07-30T17:22:55.128Z,49.22
2018-07-30T17:27:58.882Z,49.21
2018-07-30T17:33:02.651Z,48.61
2018-07-30T17:38:06.578Z,49.23
2018-07-30T17:43:10.432Z,48.86
2018-07-30T17:48:14.364Z,49.15
2018-07-30T17:53:18.184Z,49.14
2018-07-30T17:58:22.256Z,48.79
2018-07-30T18:03:26.077Z,49.32
2018-07-30T18:08:30.020Z,49.31
2018-07-30T18:13:34.061Z,48.80
2018-07-30T18:18:38.119Z,49.61
2018-07-30T18:23:41.927Z,48.98
2018-07-30T18:28:45.954Z,49.51
2018-07-30T18:33:50.179Z,49.03
2018-07-30T18:38:54.150Z,49.14
2018-07-30T18:43:59.601Z,48.67
2018-07-30T18:49:03.387Z,48.60
2018-07-30T18:54:07.768Z,48.18
2018-07-30T18:59:12.623Z,49.11
2018-07-30T19:04:20.133Z,48.67
2018-07-30T19:09:34.815Z,48.56
2018-07-30T19:14:39.771Z,48.87
2018-07-30T19:25:07.471Z,49.00
2018-07-30T19:30:12.561Z,49.28
2018-07-30T19:40:47.848Z,48.94
2018-07-30T19:45:54.388Z,49.57
2018-07-30T19:50:59.627Z,49.35
2018-07-30T19:56:03.732Z,49.25
2018-07-30T20:01:08.068Z,49.41
2018-07-30T20:06:12.024Z,49.18
2018-07-30T20:11:16.289Z,49.04
2018-07-30T20:16:20.300Z,48.68
2018-07-30T20:21:26.189Z,48.84
2018-07-30T20:26:30.663Z,48.88
2018-07-30T20:31:34.587Z,48.64
2018-07-30T20:36:38.654Z,47.95
2018-07-30T20:41:42.785Z,47.83
2018-07-30T20:46:47.119Z,47.35
2018-07-30T20:51:50.976Z,46.44
2018-07-30T20:56:54.832Z,46.83
2018-07-30T21:01:58.702Z,46.29
2018-07-30T21:07:02.850Z,46.33
2018-07-30T21:12:07.036Z,45.43
2018-07-30T21:17:10.889Z,46.27
2018-07-30T21:22:14.689Z,46.36
2018-07-30T21:27:18.729Z,45.78
2018-07-30T21:32:22.425Z,45.23
2018-07-30T21:37:26.366Z,44.56
2018-07-30T21:42:30.192Z,44.58
2018-07-30T21:47:34.027Z,44.80
2018-07-30T21:52:37.662Z,44.57
2018-07-30T21:57:41.536Z,44.74
2018-07-30T22:02:45.897Z,44.36
2018-07-30T22:07:50.135Z,45.01
2018-07-30T22:12:55.036Z,44.08
2018-07-30T22:17:58.897Z,44.72
2018-07-30T22:23:02.671Z,45.03
2018-07-30T22:28:07.035Z,43.65
2018-07-30T22:33:10.825Z,43.82
2018-07-30T22:38:14.630Z,43.61
2018-07-30T22:43:18.494Z,43.95
2018-07-30T22:48:22.297Z,43.28
2018-07-30T22:53:26.164Z,44.04
2018-07-30T22:58:29.883Z,44.10
2018-07-30T23:03:33.624Z,44.03
2018-07-30T23:08:37.350Z,43.96
2018-07-30T23:13:41.174Z,43.69
2018-07-30T23:18:44.895Z,43.19
2018-07-30T23:23:48.620Z,42.96
2018-07-30T23:28:52.439Z,42.45
2018-07-30T23:33:56.248Z,43.00
2018-07-30T23:39:00.092Z,43.03
2018-07-30T23:44:04.003Z,42.85
2018-07-30T23:49:07.773Z,43.65
2018-07-30T23:54:12.312Z,43.23
2018-07-30T23:59:15.938Z,42.56
